sensor_id;sensor_type;location;lat;lon;timestamp;P1;durP1;ratioP1;P2;durP2;ratioP2
71366;SDS011;60030;52.274;8.040;2022-08-02T00:02:08;6.85;;;2.20;;
71366;SDS011;60030;52.274;8.040;2022-08-02T00:04:36;6.45;;;2.30;;
71366;SDS011;60030;52.274;8.040;2022-08-02T00:07:03;7.57;;;2.55;;
71366;SDS011;60030;52.274;8.040;2022-08-02T00:09:30;8.77;;;2.58;;
71366;SDS011;60030;52.274;8.040;2022-08-02T00:11:57;7.37;;;3.00;;
71366;SDS011;60030;52.274;8.040;2022-08-02T00:14:24;10.25;;;2.55;;
71366;SDS011;60030;52.274;8.040;2022-08-02T00:16:51;3.83;;;2.40;;
71366;SDS011;60030;52.274;8.040;2022-08-02T00:19:18;8.05;;;2.78;;
71366;SDS011;60030;52.274;8.040;2022-08-02T00:21:47;6.23;;;2.60;;
71366;SDS011;60030;52.274;8.040;2022-08-02T00:24:14;4.00;;;2.85;;
71366;SDS011;60030;52.274;8.040;2022-08-02T00:26:41;5.53;;;2.57;;
71366;SDS011;60030;52.274;8.040;2022-08-02T00:29:08;8.77;;;2.70;;
71366;SDS011;60030;52.274;8.040;2022-08-02T00:31:35;5.03;;;2.50;;
71366;SDS011;60030;52.274;8.040;2022-08-02T00:34:02;4.30;;;2.40;;
71366;SDS011;60030;52.274;8.040;2022-08-02T00:36:29;5.57;;;2.60;;
71366;SDS011;60030;52.274;8.040;2022-08-02T00:38:58;5.20;;;2.70;;
71366;SDS011;60030;52.274;8.040;2022-08-02T00:41:25;8.57;;;3.27;;
71366;SDS011;60030;52.274;8.040;2022-08-02T00:43:52;8.17;;;2.80;;
71366;SDS011;60030;52.274;8.040;2022-08-02T00:46:19;7.83;;;2.80;;
71366;SDS011;60030;52.274;8.040;2022-08-02T00:48:46;7.43;;;2.77;;
71366;SDS011;60030;52.274;8.040;2022-08-02T00:51:15;7.33;;;2.50;;
71366;SDS011;60030;52.274;8.040;2022-08-02T00:53:42;8.30;;;2.97;;
71366;SDS011;60030;52.274;8.040;2022-08-02T00:56:11;7.23;;;3.27;;
71366;SDS011;60030;52.274;8.040;2022-08-02T00:58:38;5.10;;;2.80;;
71366;SDS011;60030;52.274;8.040;2022-08-02T01:01:05;11.63;;;3.10;;
71366;SDS011;60030;52.274;8.040;2022-08-02T01:03:32;4.00;;;2.27;;
71366;SDS011;60030;52.274;8.040;2022-08-02T01:05:59;9.40;;;3.20;;
71366;SDS011;60030;52.274;8.040;2022-08-02T01:08:26;8.73;;;3.40;;
71366;SDS011;60030;52.274;8.040;2022-08-02T01:10:53;7.63;;;2.80;;
71366;SDS011;60030;52.274;8.040;2022-08-02T01:13:25;8.13;;;3.13;;
71366;SDS011;60030;52.274;8.040;2022-08-02T01:15:54;7.63;;;3.33;;
71366;SDS011;60030;52.274;8.040;2022-08-02T01:18:29;10.30;;;3.23;;
71366;SDS011;60030;52.274;8.040;2022-08-02T01:21:05;6.93;;;3.53;;
71366;SDS011;60030;52.274;8.040;2022-08-02T01:24:00;8.27;;;3.77;;
71366;SDS011;60030;52.274;8.040;2022-08-02T01:26:41;9.70;;;4.57;;
71366;SDS011;60030;52.274;8.040;2022-08-02T01:29:17;8.47;;;3.47;;
71366;SDS011;60030;52.274;8.040;2022-08-02T01:31:53;8.60;;;3.40;;
71366;SDS011;60030;52.274;8.040;2022-08-02T01:34:26;5.82;;;3.30;;
71366;SDS011;60030;52.274;8.040;2022-08-02T01:37:01;8.83;;;3.60;;
71366;SDS011;60030;52.274;8.040;2022-08-02T01:39:33;7.10;;;3.43;;
71366;SDS011;60030;52.274;8.040;2022-08-02T01:42:03;7.50;;;3.53;;
71366;SDS011;60030;52.274;8.040;2022-08-02T01:44:33;10.37;;;4.07;;
71366;SDS011;60030;52.274;8.040;2022-08-02T01:47:04;6.20;;;3.57;;
71366;SDS011;60030;52.274;8.040;2022-08-02T01:49:34;8.07;;;3.50;;
71366;SDS011;60030;52.274;8.040;2022-08-02T01:52:03;6.67;;;3.33;;
71366;SDS011;60030;52.274;8.040;2022-08-02T01:54:52;6.37;;;3.10;;
71366;SDS011;60030;52.274;8.040;2022-08-02T01:57:23;8.87;;;3.07;;
71366;SDS011;60030;52.274;8.040;2022-08-02T01:59:54;7.67;;;3.50;;
71366;SDS011;60030;52.274;8.040;2022-08-02T02:02:24;8.83;;;3.63;;
71366;SDS011;60030;52.274;8.040;2022-08-02T02:04:54;7.30;;;3.17;;
71366;SDS011;60030;52.274;8.040;2022-08-02T02:07:23;6.67;;;3.10;;
71366;SDS011;60030;52.274;8.040;2022-08-02T02:09:50;8.67;;;3.87;;
71366;SDS011;60030;52.274;8.040;2022-08-02T02:12:19;10.87;;;4.07;;
71366;SDS011;60030;52.274;8.040;2022-08-02T02:14:49;8.43;;;3.57;;
71366;SDS011;60030;52.274;8.040;2022-08-02T02:17:18;7.60;;;3.60;;
71366;SDS011;60030;52.274;8.040;2022-08-02T02:19:46;9.27;;;3.30;;
71366;SDS011;60030;52.274;8.040;2022-08-02T02:22:14;8.07;;;3.53;;
71366;SDS011;60030;52.274;8.040;2022-08-02T02:24:41;10.57;;;4.17;;
71366;SDS011;60030;52.274;8.040;2022-08-02T02:27:09;10.50;;;3.57;;
71366;SDS011;60030;52.274;8.040;2022-08-02T02:29:41;7.23;;;3.20;;
71366;SDS011;60030;52.274;8.040;2022-08-02T02:32:10;8.37;;;3.67;;
71366;SDS011;60030;52.274;8.040;2022-08-02T02:34:41;6.93;;;3.50;;
71366;SDS011;60030;52.274;8.040;2022-08-02T02:37:12;8.87;;;3.60;;
71366;SDS011;60030;52.274;8.040;2022-08-02T02:39:41;6.70;;;3.30;;
71366;SDS011;60030;52.274;8.040;2022-08-02T02:42:11;4.87;;;3.23;;
71366;SDS011;60030;52.274;8.040;2022-08-02T02:44:41;11.43;;;3.43;;
71366;SDS011;60030;52.274;8.040;2022-08-02T02:47:09;7.87;;;3.87;;
71366;SDS011;60030;52.274;8.040;2022-08-02T02:49:38;8.90;;;3.43;;
71366;SDS011;60030;52.274;8.040;2022-08-02T02:52:08;7.87;;;4.27;;
71366;SDS011;60030;52.274;8.040;2022-08-02T02:54:38;7.43;;;3.53;;
71366;SDS011;60030;52.274;8.040;2022-08-02T02:57:07;8.67;;;3.80;;
71366;SDS011;60030;52.274;8.040;2022-08-02T02:59:35;6.93;;;3.73;;
71366;SDS011;60030;52.274;8.040;2022-08-02T03:02:04;11.73;;;4.20;;
71366;SDS011;60030;52.274;8.040;2022-08-02T03:04:32;7.03;;;4.20;;
71366;SDS011;60030;52.274;8.040;2022-08-02T03:07:00;7.73;;;3.30;;
71366;SDS011;60030;52.274;8.040;2022-08-02T03:09:27;5.00;;;3.23;;
71366;SDS011;60030;52.274;8.040;2022-08-02T03:11:55;8.93;;;3.57;;
71366;SDS011;60030;52.274;8.040;2022-08-02T03:14:22;8.80;;;3.40;;
71366;SDS011;60030;52.274;8.040;2022-08-02T03:16:50;7.57;;;3.10;;
71366;SDS011;60030;52.274;8.040;2022-08-02T03:19:19;5.83;;;3.10;;
71366;SDS011;60030;52.274;8.040;2022-08-02T03:21:48;8.70;;;3.37;;
71366;SDS011;60030;52.274;8.040;2022-08-02T03:24:17;5.77;;;3.10;;
71366;SDS011;60030;52.274;8.040;2022-08-02T03:26:44;4.87;;;3.00;;
71366;SDS011;60030;52.274;8.040;2022-08-02T03:29:12;6.47;;;2.77;;
71366;SDS011;60030;52.274;8.040;2022-08-02T03:31:39;18.77;;;4.93;;
71366;SDS011;60030;52.274;8.040;2022-08-02T03:34:09;9.03;;;4.43;;
71366;SDS011;60030;52.274;8.040;2022-08-02T03:36:36;18.13;;;9.37;;
71366;SDS011;60030;52.274;8.040;2022-08-02T03:39:04;14.67;;;7.63;;
71366;SDS011;60030;52.274;8.040;2022-08-02T03:41:34;17.90;;;9.10;;
71366;SDS011;60030;52.274;8.040;2022-08-02T03:44:03;11.87;;;5.97;;
71366;SDS011;60030;52.274;8.040;2022-08-02T03:46:32;9.43;;;4.90;;
71366;SDS011;60030;52.274;8.040;2022-08-02T03:49:03;9.03;;;4.00;;
71366;SDS011;60030;52.274;8.040;2022-08-02T03:51:32;7.57;;;3.80;;
71366;SDS011;60030;52.274;8.040;2022-08-02T03:53:59;9.23;;;3.80;;
71366;SDS011;60030;52.274;8.040;2022-08-02T03:56:27;9.57;;;4.13;;
71366;SDS011;60030;52.274;8.040;2022-08-02T03:59:05;7.93;;;3.33;;
71366;SDS011;60030;52.274;8.040;2022-08-02T04:01:33;9.20;;;3.63;;
71366;SDS011;60030;52.274;8.040;2022-08-02T04:04:00;7.70;;;3.50;;
71366;SDS011;60030;52.274;8.040;2022-08-02T04:06:27;10.97;;;3.40;;
71366;SDS011;60030;52.274;8.040;2022-08-02T04:08:54;6.47;;;3.10;;
71366;SDS011;60030;52.274;8.040;2022-08-02T04:11:22;9.00;;;3.73;;
71366;SDS011;60030;52.274;8.040;2022-08-02T04:13:58;7.07;;;3.60;;
71366;SDS011;60030;52.274;8.040;2022-08-02T04:16:36;9.50;;;3.50;;
71366;SDS011;60030;52.274;8.040;2022-08-02T04:19:07;5.83;;;3.07;;
71366;SDS011;60030;52.274;8.040;2022-08-02T04:21:37;7.33;;;3.40;;
71366;SDS011;60030;52.274;8.040;2022-08-02T04:24:07;8.70;;;3.33;;
71366;SDS011;60030;52.274;8.040;2022-08-02T04:26:36;8.37;;;3.67;;
71366;SDS011;60030;52.274;8.040;2022-08-02T04:29:03;6.57;;;3.23;;
71366;SDS011;60030;52.274;8.040;2022-08-02T04:31:31;10.03;;;3.60;;
71366;SDS011;60030;52.274;8.040;2022-08-02T04:34:00;7.47;;;3.30;;
71366;SDS011;60030;52.274;8.040;2022-08-02T04:36:28;7.20;;;3.70;;
71366;SDS011;60030;52.274;8.040;2022-08-02T04:38:55;7.67;;;3.67;;
71366;SDS011;60030;52.274;8.040;2022-08-02T04:41:22;8.03;;;4.20;;
71366;SDS011;60030;52.274;8.040;2022-08-02T04:44:01;6.57;;;4.00;;
71366;SDS011;60030;52.274;8.040;2022-08-02T04:46:28;10.27;;;3.67;;
71366;SDS011;60030;52.274;8.040;2022-08-02T04:48:56;7.07;;;3.70;;
71366;SDS011;60030;52.274;8.040;2022-08-02T04:51:24;7.60;;;3.60;;
71366;SDS011;60030;52.274;8.040;2022-08-02T04:53:51;7.10;;;3.60;;
71366;SDS011;60030;52.274;8.040;2022-08-02T04:56:19;10.53;;;3.90;;
71366;SDS011;60030;52.274;8.040;2022-08-02T04:58:46;7.40;;;4.03;;
71366;SDS011;60030;52.274;8.040;2022-08-02T05:01:13;11.10;;;3.83;;
71366;SDS011;60030;52.274;8.040;2022-08-02T05:03:40;7.67;;;3.73;;
71366;SDS011;60030;52.274;8.040;2022-08-02T05:06:07;12.60;;;4.00;;
71366;SDS011;60030;52.274;8.040;2022-08-02T05:08:35;10.83;;;4.57;;
71366;SDS011;60030;52.274;8.040;2022-08-02T05:11:02;7.50;;;4.03;;
71366;SDS011;60030;52.274;8.040;2022-08-02T05:13:29;8.93;;;3.47;;
71366;SDS011;60030;52.274;8.040;2022-08-02T05:15:56;9.60;;;3.70;;
71366;SDS011;60030;52.274;8.040;2022-08-02T05:18:25;6.17;;;3.67;;
71366;SDS011;60030;52.274;8.040;2022-08-02T05:20:53;6.53;;;3.50;;
71366;SDS011;60030;52.274;8.040;2022-08-02T05:23:20;5.67;;;3.40;;
71366;SDS011;60030;52.274;8.040;2022-08-02T05:25:49;7.43;;;3.70;;
71366;SDS011;60030;52.274;8.040;2022-08-02T05:28:16;7.00;;;3.70;;
71366;SDS011;60030;52.274;8.040;2022-08-02T05:30:43;9.37;;;4.20;;
71366;SDS011;60030;52.274;8.040;2022-08-02T05:33:10;7.53;;;3.80;;
71366;SDS011;60030;52.274;8.040;2022-08-02T05:35:37;5.10;;;3.60;;
71366;SDS011;60030;52.274;8.040;2022-08-02T05:38:04;6.90;;;3.80;;
71366;SDS011;60030;52.274;8.040;2022-08-02T05:40:31;7.73;;;3.77;;
71366;SDS011;60030;52.274;8.040;2022-08-02T05:43:00;6.80;;;3.47;;
71366;SDS011;60030;52.274;8.040;2022-08-02T05:45:27;6.37;;;3.23;;
71366;SDS011;60030;52.274;8.040;2022-08-02T05:47:59;7.03;;;3.53;;
71366;SDS011;60030;52.274;8.040;2022-08-02T05:50:26;6.87;;;3.70;;
71366;SDS011;60030;52.274;8.040;2022-08-02T05:52:55;8.37;;;3.83;;
71366;SDS011;60030;52.274;8.040;2022-08-02T05:55:31;5.70;;;3.50;;
71366;SDS011;60030;52.274;8.040;2022-08-02T05:58:06;7.07;;;3.47;;
71366;SDS011;60030;52.274;8.040;2022-08-02T06:00:43;10.97;;;4.47;;
71366;SDS011;60030;52.274;8.040;2022-08-02T06:03:14;6.40;;;3.90;;
71366;SDS011;60030;52.274;8.040;2022-08-02T06:05:49;9.33;;;3.80;;
71366;SDS011;60030;52.274;8.040;2022-08-02T06:08:19;9.07;;;3.57;;
71366;SDS011;60030;52.274;8.040;2022-08-02T06:10:50;11.27;;;4.30;;
71366;SDS011;60030;52.274;8.040;2022-08-02T06:13:22;10.90;;;3.93;;
71366;SDS011;60030;52.274;8.040;2022-08-02T06:15:51;8.50;;;4.00;;
71366;SDS011;60030;52.274;8.040;2022-08-02T06:18:20;6.50;;;3.93;;
71366;SDS011;60030;52.274;8.040;2022-08-02T06:20:48;8.20;;;3.93;;
71366;SDS011;60030;52.274;8.040;2022-08-02T06:23:16;9.87;;;4.60;;
71366;SDS011;60030;52.274;8.040;2022-08-02T06:25:46;5.33;;;3.70;;
71366;SDS011;60030;52.274;8.040;2022-08-02T06:28:16;11.43;;;4.10;;
71366;SDS011;60030;52.274;8.040;2022-08-02T06:30:46;11.03;;;4.30;;
71366;SDS011;60030;52.274;8.040;2022-08-02T06:33:13;9.00;;;4.00;;
71366;SDS011;60030;52.274;8.040;2022-08-02T06:35:42;5.17;;;4.03;;
71366;SDS011;60030;52.274;8.040;2022-08-02T06:38:14;5.60;;;4.03;;
71366;SDS011;60030;52.274;8.040;2022-08-02T06:40:47;9.07;;;4.33;;
71366;SDS011;60030;52.274;8.040;2022-08-02T06:43:20;8.47;;;3.60;;
71366;SDS011;60030;52.274;8.040;2022-08-02T06:45:53;8.20;;;3.80;;
71366;SDS011;60030;52.274;8.040;2022-08-02T06:48:20;10.03;;;4.47;;
71366;SDS011;60030;52.274;8.040;2022-08-02T06:50:48;10.63;;;3.83;;
71366;SDS011;60030;52.274;8.040;2022-08-02T06:53:15;8.87;;;4.40;;
71366;SDS011;60030;52.274;8.040;2022-08-02T06:55:42;9.33;;;4.40;;
71366;SDS011;60030;52.274;8.040;2022-08-02T06:58:10;8.73;;;3.97;;
71366;SDS011;60030;52.274;8.040;2022-08-02T07:00:37;6.00;;;3.83;;
71366;SDS011;60030;52.274;8.040;2022-08-02T07:03:06;8.13;;;3.97;;
71366;SDS011;60030;52.274;8.040;2022-08-02T07:05:33;8.57;;;4.00;;
71366;SDS011;60030;52.274;8.040;2022-08-02T07:08:01;8.13;;;4.43;;
71366;SDS011;60030;52.274;8.040;2022-08-02T07:10:28;6.93;;;3.80;;
71366;SDS011;60030;52.274;8.040;2022-08-02T07:12:55;6.93;;;3.97;;
71366;SDS011;60030;52.274;8.040;2022-08-02T07:15:22;9.47;;;4.00;;
71366;SDS011;60030;52.274;8.040;2022-08-02T07:17:50;9.10;;;4.70;;
71366;SDS011;60030;52.274;8.040;2022-08-02T07:20:18;5.43;;;3.57;;
71366;SDS011;60030;52.274;8.040;2022-08-02T07:22:45;6.90;;;3.20;;
71366;SDS011;60030;52.274;8.040;2022-08-02T07:25:12;10.73;;;3.93;;
71366;SDS011;60030;52.274;8.040;2022-08-02T07:27:39;13.67;;;3.40;;
71366;SDS011;60030;52.274;8.040;2022-08-02T07:30:07;7.00;;;3.00;;
71366;SDS011;60030;52.274;8.040;2022-08-02T07:32:35;8.03;;;3.53;;
71366;SDS011;60030;52.274;8.040;2022-08-02T07:35:02;12.63;;;6.20;;
71366;SDS011;60030;52.274;8.040;2022-08-02T07:37:32;9.82;;;4.32;;
71366;SDS011;60030;52.274;8.040;2022-08-02T07:40:00;9.03;;;3.90;;
71366;SDS011;60030;52.274;8.040;2022-08-02T07:42:27;6.47;;;4.10;;
71366;SDS011;60030;52.274;8.040;2022-08-02T07:44:55;10.20;;;4.20;;
71366;SDS011;60030;52.274;8.040;2022-08-02T07:47:22;10.23;;;3.80;;
71366;SDS011;60030;52.274;8.040;2022-08-02T07:49:49;10.13;;;4.20;;
71366;SDS011;60030;52.274;8.040;2022-08-02T07:52:17;10.98;;;4.20;;
71366;SDS011;60030;52.274;8.040;2022-08-02T07:54:46;6.70;;;3.73;;
71366;SDS011;60030;52.274;8.040;2022-08-02T07:57:13;8.03;;;3.97;;
71366;SDS011;60030;52.274;8.040;2022-08-02T07:59:40;6.95;;;3.70;;
71366;SDS011;60030;52.274;8.040;2022-08-02T08:02:07;8.20;;;3.30;;
71366;SDS011;60030;52.274;8.040;2022-08-02T08:04:34;7.93;;;3.85;;
71366;SDS011;60030;52.274;8.040;2022-08-02T08:07:01;7.25;;;4.20;;
71366;SDS011;60030;52.274;8.040;2022-08-02T08:09:30;7.80;;;3.95;;
71366;SDS011;60030;52.274;8.040;2022-08-02T08:11:58;5.30;;;3.33;;
71366;SDS011;60030;52.274;8.040;2022-08-02T08:14:25;8.30;;;3.40;;
71366;SDS011;60030;52.274;8.040;2022-08-02T08:16:52;4.55;;;3.30;;
71366;SDS011;60030;52.274;8.040;2022-08-02T08:19:19;9.40;;;3.78;;
71366;SDS011;60030;52.274;8.040;2022-08-02T08:21:46;7.70;;;3.43;;
71366;SDS011;60030;52.274;8.040;2022-08-02T08:24:14;8.68;;;3.42;;
71366;SDS011;60030;52.274;8.040;2022-08-02T08:26:41;7.30;;;3.22;;
71366;SDS011;60030;52.274;8.040;2022-08-02T08:29:09;6.95;;;3.30;;
71366;SDS011;60030;52.274;8.040;2022-08-02T08:31:37;7.35;;;3.50;;
71366;SDS011;60030;52.274;8.040;2022-08-02T08:34:04;5.68;;;3.03;;
71366;SDS011;60030;52.274;8.040;2022-08-02T08:36:31;6.32;;;3.22;;
71366;SDS011;60030;52.274;8.040;2022-08-02T08:38:58;6.97;;;3.45;;
71366;SDS011;60030;52.274;8.040;2022-08-02T08:41:25;8.07;;;3.47;;
71366;SDS011;60030;52.274;8.040;2022-08-02T08:43:52;7.68;;;2.75;;
71366;SDS011;60030;52.274;8.040;2022-08-02T08:46:25;4.32;;;2.88;;
71366;SDS011;60030;52.274;8.040;2022-08-02T08:48:55;4.88;;;3.10;;
71366;SDS011;60030;52.274;8.040;2022-08-02T08:51:27;6.43;;;3.15;;
71366;SDS011;60030;52.274;8.040;2022-08-02T08:53:58;6.40;;;3.53;;
71366;SDS011;60030;52.274;8.040;2022-08-02T08:56:30;7.20;;;3.13;;
71366;SDS011;60030;52.274;8.040;2022-08-02T08:58:59;5.97;;;3.03;;
71366;SDS011;60030;52.274;8.040;2022-08-02T09:01:27;10.52;;;3.22;;
71366;SDS011;60030;52.274;8.040;2022-08-02T09:03:55;6.68;;;3.03;;
71366;SDS011;60030;52.274;8.040;2022-08-02T09:06:22;6.55;;;3.60;;
71366;SDS011;60030;52.274;8.040;2022-08-02T09:08:49;6.47;;;2.95;;
71366;SDS011;60030;52.274;8.040;2022-08-02T09:11:17;7.78;;;3.28;;
71366;SDS011;60030;52.274;8.040;2022-08-02T09:13:48;5.38;;;3.20;;
71366;SDS011;60030;52.274;8.040;2022-08-02T09:16:26;8.63;;;2.90;;
71366;SDS011;60030;52.274;8.040;2022-08-02T09:18:57;5.20;;;3.17;;
71366;SDS011;60030;52.274;8.040;2022-08-02T09:21:32;5.60;;;2.88;;
71366;SDS011;60030;52.274;8.040;2022-08-02T09:24:00;6.60;;;3.00;;
71366;SDS011;60030;52.274;8.040;2022-08-02T09:26:28;6.53;;;3.03;;
71366;SDS011;60030;52.274;8.040;2022-08-02T09:29:00;6.72;;;3.47;;
71366;SDS011;60030;52.274;8.040;2022-08-02T09:31:29;4.95;;;3.03;;
71366;SDS011;60030;52.274;8.040;2022-08-02T09:34:00;5.15;;;2.83;;
71366;SDS011;60030;52.274;8.040;2022-08-02T09:36:36;3.35;;;2.03;;
71366;SDS011;60030;52.274;8.040;2022-08-02T09:39:04;6.72;;;2.50;;
71366;SDS011;60030;52.274;8.040;2022-08-02T09:41:33;7.85;;;2.78;;
71366;SDS011;60030;52.274;8.040;2022-08-02T09:44:02;4.70;;;2.85;;
71366;SDS011;60030;52.274;8.040;2022-08-02T09:46:33;6.55;;;3.28;;
71366;SDS011;60030;52.274;8.040;2022-08-02T09:49:03;5.88;;;2.70;;
71366;SDS011;60030;52.274;8.040;2022-08-02T09:51:32;4.72;;;2.20;;
71366;SDS011;60030;52.274;8.040;2022-08-02T09:54:02;5.63;;;3.55;;
71366;SDS011;60030;52.274;8.040;2022-08-02T09:56:42;5.20;;;2.42;;
71366;SDS011;60030;52.274;8.040;2022-08-02T09:59:11;3.47;;;2.40;;
71366;SDS011;60030;52.274;8.040;2022-08-02T10:01:41;4.85;;;2.70;;
71366;SDS011;60030;52.274;8.040;2022-08-02T10:04:09;4.00;;;2.42;;
71366;SDS011;60030;52.274;8.040;2022-08-02T10:06:38;5.10;;;2.63;;
71366;SDS011;60030;52.274;8.040;2022-08-02T10:09:07;4.65;;;2.50;;
71366;SDS011;60030;52.274;8.040;2022-08-02T10:11:36;3.50;;;2.22;;
71366;SDS011;60030;52.274;8.040;2022-08-02T10:14:04;6.60;;;2.30;;
71366;SDS011;60030;52.274;8.040;2022-08-02T10:16:34;2.38;;;1.92;;
71366;SDS011;60030;52.274;8.040;2022-08-02T10:19:03;3.92;;;2.30;;
71366;SDS011;60030;52.274;8.040;2022-08-02T10:21:31;4.72;;;2.50;;
71366;SDS011;60030;52.274;8.040;2022-08-02T10:24:06;7.85;;;2.63;;
71366;SDS011;60030;52.274;8.040;2022-08-02T10:26:35;3.63;;;2.40;;
71366;SDS011;60030;52.274;8.040;2022-08-02T10:29:05;4.70;;;2.25;;
71366;SDS011;60030;52.274;8.040;2022-08-02T10:31:37;4.32;;;2.30;;
71366;SDS011;60030;52.274;8.040;2022-08-02T10:34:13;2.58;;;2.08;;
71366;SDS011;60030;52.274;8.040;2022-08-02T10:36:45;5.13;;;2.25;;
71366;SDS011;60030;52.274;8.040;2022-08-02T10:39:14;7.18;;;3.03;;
71366;SDS011;60030;52.274;8.040;2022-08-02T10:41:42;4.60;;;1.90;;
71366;SDS011;60030;52.274;8.040;2022-08-02T10:44:21;3.50;;;2.20;;
71366;SDS011;60030;52.274;8.040;2022-08-02T10:46:50;3.28;;;2.33;;
71366;SDS011;60030;52.274;8.040;2022-08-02T10:49:20;5.60;;;2.63;;
71366;SDS011;60030;52.274;8.040;2022-08-02T10:51:54;2.70;;;2.20;;
71366;SDS011;60030;52.274;8.040;2022-08-02T10:54:23;3.53;;;2.10;;
71366;SDS011;60030;52.274;8.040;2022-08-02T10:56:52;3.70;;;2.47;;
71366;SDS011;60030;52.274;8.040;2022-08-02T10:59:23;5.72;;;2.10;;
71366;SDS011;60030;52.274;8.040;2022-08-02T11:01:52;3.65;;;2.40;;
71366;SDS011;60030;52.274;8.040;2022-08-02T11:04:28;4.57;;;2.40;;
71366;SDS011;60030;52.274;8.040;2022-08-02T11:07:05;4.07;;;2.47;;
71366;SDS011;60030;52.274;8.040;2022-08-02T11:09:33;4.88;;;2.50;;
71366;SDS011;60030;52.274;8.040;2022-08-02T11:12:02;2.80;;;2.45;;
71366;SDS011;60030;52.274;8.040;2022-08-02T11:14:32;4.60;;;2.65;;
71366;SDS011;60030;52.274;8.040;2022-08-02T11:17:04;3.55;;;2.40;;
71366;SDS011;60030;52.274;8.040;2022-08-02T11:22:42;5.18;;;2.30;;
71366;SDS011;60030;52.274;8.040;2022-08-02T11:25:29;4.38;;;2.38;;
71366;SDS011;60030;52.274;8.040;2022-08-02T11:27:58;4.90;;;2.40;;
71366;SDS011;60030;52.274;8.040;2022-08-02T11:30:34;4.72;;;2.67;;
71366;SDS011;60030;52.274;8.040;2022-08-02T11:33:01;3.25;;;2.30;;
71366;SDS011;60030;52.274;8.040;2022-08-02T11:35:34;4.07;;;2.85;;
71366;SDS011;60030;52.274;8.040;2022-08-02T11:38:12;6.03;;;2.35;;
71366;SDS011;60030;52.274;8.040;2022-08-02T11:40:41;6.40;;;2.75;;
71366;SDS011;60030;52.274;8.040;2022-08-02T11:43:19;3.28;;;2.05;;
71366;SDS011;60030;52.274;8.040;2022-08-02T11:45:48;5.35;;;2.40;;
71366;SDS011;60030;52.274;8.040;2022-08-02T11:48:32;4.40;;;2.78;;
71366;SDS011;60030;52.274;8.040;2022-08-02T11:51:06;3.53;;;2.80;;
71366;SDS011;60030;52.274;8.040;2022-08-02T11:53:44;2.30;;;1.83;;
71366;SDS011;60030;52.274;8.040;2022-08-02T11:56:13;3.25;;;2.58;;
71366;SDS011;60030;52.274;8.040;2022-08-02T12:01:31;2.85;;;2.65;;
71366;SDS011;60030;52.274;8.040;2022-08-02T12:03:59;3.63;;;2.50;;
71366;SDS011;60030;52.274;8.040;2022-08-02T12:06:29;3.08;;;2.67;;
71366;SDS011;60030;52.274;8.040;2022-08-02T12:08:58;3.15;;;2.47;;
71366;SDS011;60030;52.274;8.040;2022-08-02T12:11:29;5.90;;;2.80;;
71366;SDS011;60030;52.274;8.040;2022-08-02T12:13:56;3.70;;;2.55;;
71366;SDS011;60030;52.274;8.040;2022-08-02T12:16:23;3.13;;;2.13;;
71366;SDS011;60030;52.274;8.040;2022-08-02T12:19:15;3.60;;;2.88;;
71366;SDS011;60030;52.274;8.040;2022-08-02T12:21:53;9.05;;;2.67;;
71366;SDS011;60030;52.274;8.040;2022-08-02T12:24:33;5.10;;;2.42;;
71366;SDS011;60030;52.274;8.040;2022-08-02T12:27:00;3.75;;;2.28;;
71366;SDS011;60030;52.274;8.040;2022-08-02T12:29:28;4.50;;;2.45;;
71366;SDS011;60030;52.274;8.040;2022-08-02T12:31:56;3.70;;;2.45;;
71366;SDS011;60030;52.274;8.040;2022-08-02T12:34:24;5.10;;;2.60;;
71366;SDS011;60030;52.274;8.040;2022-08-02T12:37:03;3.15;;;2.35;;
71366;SDS011;60030;52.274;8.040;2022-08-02T12:39:36;5.03;;;2.47;;
71366;SDS011;60030;52.274;8.040;2022-08-02T12:42:06;4.10;;;2.63;;
71366;SDS011;60030;52.274;8.040;2022-08-02T12:44:35;4.28;;;2.75;;
71366;SDS011;60030;52.274;8.040;2022-08-02T12:47:05;7.10;;;3.10;;
71366;SDS011;60030;52.274;8.040;2022-08-02T12:49:34;7.80;;;2.63;;
71366;SDS011;60030;52.274;8.040;2022-08-02T12:52:05;2.50;;;2.30;;
71366;SDS011;60030;52.274;8.040;2022-08-02T12:54:44;5.82;;;2.88;;
71366;SDS011;60030;52.274;8.040;2022-08-02T12:57:13;4.22;;;2.58;;
71366;SDS011;60030;52.274;8.040;2022-08-02T12:59:42;2.65;;;2.45;;
71366;SDS011;60030;52.274;8.040;2022-08-02T13:02:14;4.22;;;2.55;;
71366;SDS011;60030;52.274;8.040;2022-08-02T13:04:41;5.47;;;2.65;;
71366;SDS011;60030;52.274;8.040;2022-08-02T13:07:10;2.50;;;2.17;;
71366;SDS011;60030;52.274;8.040;2022-08-02T13:09:37;3.15;;;2.20;;
71366;SDS011;60030;52.274;8.040;2022-08-02T13:12:09;5.07;;;2.45;;
71366;SDS011;60030;52.274;8.040;2022-08-02T13:14:36;3.83;;;2.53;;
71366;SDS011;60030;52.274;8.040;2022-08-02T13:17:04;4.60;;;2.90;;
71366;SDS011;60030;52.274;8.040;2022-08-02T13:19:31;2.65;;;2.45;;
71366;SDS011;60030;52.274;8.040;2022-08-02T13:21:58;3.33;;;2.60;;
71366;SDS011;60030;52.274;8.040;2022-08-02T13:24:27;5.05;;;2.95;;
71366;SDS011;60030;52.274;8.040;2022-08-02T13:26:54;3.97;;;3.00;;
71366;SDS011;60030;52.274;8.040;2022-08-02T13:29:21;5.95;;;3.10;;
71366;SDS011;60030;52.274;8.040;2022-08-02T13:31:48;5.20;;;3.35;;
71366;SDS011;60030;52.274;8.040;2022-08-02T13:34:15;2.88;;;2.60;;
71366;SDS011;60030;52.274;8.040;2022-08-02T13:36:42;3.38;;;3.05;;
71366;SDS011;60030;52.274;8.040;2022-08-02T13:39:09;4.47;;;3.00;;
71366;SDS011;60030;52.274;8.040;2022-08-02T13:41:38;3.63;;;3.22;;
71366;SDS011;60030;52.274;8.040;2022-08-02T13:44:05;3.95;;;3.53;;
71366;SDS011;60030;52.274;8.040;2022-08-02T13:46:32;3.28;;;2.88;;
71366;SDS011;60030;52.274;8.040;2022-08-02T13:49:00;5.30;;;3.00;;
71366;SDS011;60030;52.274;8.040;2022-08-02T13:51:27;2.95;;;2.75;;
71366;SDS011;60030;52.274;8.040;2022-08-02T13:53:54;3.50;;;2.85;;
71366;SDS011;60030;52.274;8.040;2022-08-02T13:56:22;3.40;;;2.53;;
71366;SDS011;60030;52.274;8.040;2022-08-02T13:58:50;2.60;;;2.40;;
71366;SDS011;60030;52.274;8.040;2022-08-02T14:01:17;4.43;;;2.70;;
71366;SDS011;60030;52.274;8.040;2022-08-02T14:03:44;2.70;;;2.50;;
71366;SDS011;60030;52.274;8.040;2022-08-02T14:06:11;3.17;;;2.75;;
71366;SDS011;60030;52.274;8.040;2022-08-02T14:08:38;3.03;;;2.72;;
71366;SDS011;60030;52.274;8.040;2022-08-02T14:11:05;6.47;;;3.17;;
71366;SDS011;60030;52.274;8.040;2022-08-02T14:13:32;3.65;;;2.47;;
71366;SDS011;60030;52.274;8.040;2022-08-02T14:16:01;4.05;;;2.30;;
71366;SDS011;60030;52.274;8.040;2022-08-02T14:18:29;2.67;;;2.40;;
71366;SDS011;60030;52.274;8.040;2022-08-02T14:20:56;3.40;;;2.10;;
71366;SDS011;60030;52.274;8.040;2022-08-02T14:23:23;4.30;;;2.50;;
71366;SDS011;60030;52.274;8.040;2022-08-02T14:25:50;4.07;;;2.30;;
71366;SDS011;60030;52.274;8.040;2022-08-02T14:28:17;2.88;;;2.08;;
71366;SDS011;60030;52.274;8.040;2022-08-02T14:30:44;2.92;;;2.58;;
71366;SDS011;60030;52.274;8.040;2022-08-02T14:33:12;2.83;;;2.17;;
71366;SDS011;60030;52.274;8.040;2022-08-02T14:35:39;3.03;;;2.40;;
71366;SDS011;60030;52.274;8.040;2022-08-02T14:38:07;4.32;;;2.58;;
71366;SDS011;60030;52.274;8.040;2022-08-02T14:40:34;5.32;;;2.40;;
71366;SDS011;60030;52.274;8.040;2022-08-02T14:43:01;2.70;;;2.30;;
71366;SDS011;60030;52.274;8.040;2022-08-02T14:45:29;2.40;;;2.20;;
71366;SDS011;60030;52.274;8.040;2022-08-02T14:47:57;2.17;;;2.05;;
71366;SDS011;60030;52.274;8.040;2022-08-02T14:50:25;2.40;;;2.20;;
71366;SDS011;60030;52.274;8.040;2022-08-02T14:52:52;2.72;;;2.13;;
71366;SDS011;60030;52.274;8.040;2022-08-02T14:55:19;2.80;;;2.30;;
71366;SDS011;60030;52.274;8.040;2022-08-02T14:57:47;2.67;;;2.20;;
71366;SDS011;60030;52.274;8.040;2022-08-02T15:00:15;3.75;;;2.47;;
71366;SDS011;60030;52.274;8.040;2022-08-02T15:02:43;5.28;;;2.47;;
71366;SDS011;60030;52.274;8.040;2022-08-02T15:05:10;3.97;;;2.15;;